createdAt,value
2019-03-03T00:02:05.289Z,26.40
2019-03-03T00:04:57.888Z,26.50
2019-03-03T00:07:50.848Z,26.50
2019-03-03T00:10:43.258Z,26.50
2019-03-03T00:13:35.765Z,26.50
2019-03-03T00:16:28.402Z,26.50
2019-03-03T00:19:21.134Z,26.50
2019-03-03T00:22:15.215Z,26.50
2019-03-03T00:25:07.929Z,26.50
2019-03-03T00:28:01.530Z,26.60
2019-03-03T00:30:54.275Z,26.60
2019-03-03T00:33:46.686Z,26.50
2019-03-03T00:37:15.401Z,26.60
2019-03-03T00:40:16.276Z,26.60
2019-03-03T00:43:36.297Z,26.60
2019-03-03T00:46:45.229Z,26.60
2019-03-03T00:49:59.367Z,26.60
2019-03-03T00:53:23.042Z,26.60
2019-03-03T00:56:31.222Z,26.60
2019-03-03T00:59:30.040Z,26.60
2019-03-03T01:02:53.205Z,26.60
2019-03-03T01:06:17.186Z,26.60
2019-03-03T01:09:33.485Z,26.60
2019-03-03T01:12:44.874Z,26.60
2019-03-03T01:15:46.529Z,26.60
2019-03-03T01:19:03.960Z,26.60
2019-03-03T01:22:05.895Z,26.60
2019-03-03T01:24:57.236Z,26.60
2019-03-03T01:27:50.509Z,26.60
2019-03-03T01:30:43.905Z,26.60
2019-03-03T01:33:37.559Z,26.60
2019-03-03T01:36:30.745Z,26.50
2019-03-03T01:39:23.951Z,26.50
2019-03-03T01:42:16.903Z,26.40
2019-03-03T01:45:11.280Z,26.40
2019-03-03T01:48:04.657Z,26.30
2019-03-03T01:50:58.108Z,26.20
2019-03-03T01:53:51.802Z,26.20
2019-03-03T01:56:44.793Z,26.10
2019-03-03T01:59:37.539Z,26.10
2019-03-03T02:02:30.883Z,26.00
2019-03-03T02:05:24.416Z,25.80
2019-03-03T02:08:18.134Z,25.80
2019-03-03T02:11:12.611Z,25.70
2019-03-03T02:14:06.588Z,25.80
2019-03-03T02:17:00.073Z,25.90
2019-03-03T02:19:53.939Z,25.90
2019-03-03T02:22:48.200Z,25.80
2019-03-03T02:25:41.891Z,25.80
2019-03-03T02:28:37.194Z,26.00
2019-03-03T02:31:31.058Z,26.00
2019-03-03T02:34:25.055Z,25.90
2019-03-03T02:37:18.651Z,25.90
2019-03-03T02:40:12.763Z,25.90
2019-03-03T02:43:06.321Z,25.90
2019-03-03T02:45:59.752Z,25.80
2019-03-03T02:48:53.743Z,25.70
2019-03-03T02:51:47.618Z,25.70
2019-03-03T02:54:40.970Z,25.70
2019-03-03T02:57:34.350Z,25.90
2019-03-03T03:00:28.270Z,26.00
2019-03-03T03:03:22.398Z,26.10
2019-03-03T03:06:38.243Z,26.30
2019-03-03T03:09:36.444Z,26.30
2019-03-03T03:12:37.304Z,26.30
2019-03-03T03:15:57.661Z,26.10
2019-03-03T03:19:09.272Z,26.10
2019-03-03T03:22:18.915Z,25.90
2019-03-03T03:25:33.348Z,25.90
2019-03-03T03:28:56.713Z,26.10
2019-03-03T03:32:06.283Z,26.20
2019-03-03T03:35:13.838Z,26.30
2019-03-03T03:38:28.101Z,26.40
2019-03-03T03:41:27.342Z,26.30
2019-03-03T03:44:30.325Z,26.40
2019-03-03T03:47:38.942Z,26.40
2019-03-03T03:50:45.391Z,26.40
2019-03-03T03:54:10.009Z,26.30
2019-03-03T03:57:33.994Z,26.30
2019-03-03T04:00:45.687Z,26.30
2019-03-03T04:03:46.595Z,26.30
2019-03-03T04:06:53.983Z,26.20
2019-03-03T04:09:56.792Z,26.30
2019-03-03T04:12:57.394Z,26.30
2019-03-03T04:16:06.963Z,26.30
2019-03-03T04:19:05.759Z,26.30
2019-03-03T04:22:14.756Z,26.40
2019-03-03T04:25:27.413Z,26.30
2019-03-03T04:28:37.156Z,26.40
2019-03-03T04:31:42.077Z,26.40
2019-03-03T04:34:54.692Z,26.40
2019-03-03T04:38:20.824Z,26.30
2019-03-03T04:41:37.418Z,26.40
2019-03-03T04:44:48.201Z,26.30
2019-03-03T04:47:59.088Z,26.20
2019-03-03T04:51:15.888Z,26.00
2019-03-03T04:54:29.424Z,25.90
2019-03-03T04:57:47.653Z,25.90
2019-03-03T05:00:57.399Z,25.90
2019-03-03T05:04:10.032Z,25.90
2019-03-03T05:07:16.502Z,26.00
2019-03-03T05:10:26.967Z,25.90
2019-03-03T05:13:29.566Z,25.80
2019-03-03T05:16:39.813Z,25.80
2019-03-03T05:19:52.527Z,25.70
2019-03-03T05:22:45.545Z,25.80
2019-03-03T05:25:38.280Z,25.90
2019-03-03T05:28:30.749Z,25.90
2019-03-03T05:31:24.039Z,26.00
2019-03-03T05:34:18.532Z,26.00
2019-03-03T05:37:11.130Z,25.80
2019-03-03T05:40:04.031Z,25.80
2019-03-03T05:42:57.695Z,25.90
2019-03-03T05:45:53.498Z,25.80
2019-03-03T05:48:46.312Z,25.70
2019-03-03T05:51:39.300Z,25.70
2019-03-03T05:54:32.580Z,25.80
2019-03-03T05:57:27.054Z,25.80
2019-03-03T06:00:19.711Z,25.80
2019-03-03T06:03:15.441Z,25.80
2019-03-03T06:06:11.190Z,25.90
2019-03-03T06:09:05.790Z,25.90
2019-03-03T06:11:59.316Z,26.00
2019-03-03T06:14:52.076Z,26.10
2019-03-03T06:17:46.935Z,26.20
2019-03-03T06:20:39.894Z,26.20
2019-03-03T06:23:32.477Z,26.10
2019-03-03T06:26:26.536Z,26.10
2019-03-03T06:29:19.978Z,26.00
2019-03-03T06:32:12.630Z,26.00
2019-03-03T06:35:06.218Z,26.10
2019-03-03T06:37:59.375Z,26.20
2019-03-03T06:40:54.169Z,26.10
2019-03-03T06:43:47.171Z,26.00
2019-03-03T06:46:40.399Z,26.10
2019-03-03T06:49:38.312Z,26.20
2019-03-03T06:52:31.723Z,26.30
2019-03-03T06:55:24.871Z,26.30
2019-03-03T06:58:16.939Z,26.30
2019-03-03T07:01:11.947Z,26.30
2019-03-03T07:04:04.795Z,26.30
2019-03-03T07:06:58.021Z,26.30
2019-03-03T07:09:55.804Z,26.30
2019-03-03T07:12:49.221Z,26.30
2019-03-03T07:15:42.212Z,26.30
2019-03-03T07:18:35.330Z,26.40
2019-03-03T07:21:29.317Z,26.30
2019-03-03T07:24:21.476Z,26.30
2019-03-03T07:27:15.669Z,26.30
2019-03-03T07:30:09.964Z,26.40
2019-03-03T07:33:25.050Z,26.40
2019-03-03T07:36:18.035Z,26.30
2019-03-03T07:39:17.787Z,26.30
2019-03-03T07:42:10.113Z,26.30
2019-03-03T07:45:04.835Z,26.30
2019-03-03T07:47:57.566Z,26.30
2019-03-03T07:50:49.779Z,26.30
2019-03-03T07:53:41.727Z,26.30
2019-03-03T07:56:35.974Z,26.30
2019-03-03T07:59:28.205Z,26.30
2019-03-03T08:02:20.251Z,26.30
2019-03-03T08:05:12.485Z,26.30
2019-03-03T08:08:04.444Z,26.30
2019-03-03T08:10:56.609Z,26.40
2019-03-03T08:13:50.170Z,26.30
2019-03-03T08:16:41.901Z,26.30
2019-03-03T08:19:36.565Z,26.30
2019-03-03T08:22:28.565Z,26.30
2019-03-03T08:25:20.776Z,26.30
2019-03-03T08:28:12.616Z,26.30
2019-03-03T08:31:04.935Z,26.30
2019-03-03T08:34:00.531Z,26.40
2019-03-03T08:36:53.215Z,26.30
2019-03-03T08:39:45.718Z,26.30
2019-03-03T08:42:58.916Z,26.30
2019-03-03T08:46:24.010Z,26.30
2019-03-03T08:49:24.209Z,26.30
2019-03-03T08:52:37.291Z,26.30
2019-03-03T08:55:47.369Z,26.30
2019-03-03T08:59:09.369Z,26.30
2019-03-03T09:02:09.206Z,26.40
2019-03-03T09:05:20.164Z,26.40
2019-03-03T09:08:33.826Z,26.30
2019-03-03T09:11:44.057Z,26.40
2019-03-03T09:15:08.606Z,26.40
2019-03-03T09:18:13.945Z,26.40
2019-03-03T09:21:12.581Z,26.40
2019-03-03T09:24:22.965Z,26.40
2019-03-03T09:27:42.727Z,26.40
2019-03-03T09:30:53.313Z,26.40
2019-03-03T09:34:12.436Z,26.40
2019-03-03T09:37:25.435Z,26.40
2019-03-03T09:40:41.552Z,26.40
2019-03-03T09:43:55.385Z,26.30
2019-03-03T09:47:20.340Z,26.40
2019-03-03T09:50:29.887Z,26.40
2019-03-03T09:53:34.285Z,26.40
2019-03-03T09:56:49.822Z,26.40
2019-03-03T09:59:49.347Z,26.40
2019-03-03T10:03:08.250Z,26.40
2019-03-03T10:06:21.388Z,26.40
2019-03-03T10:09:25.819Z,26.40
2019-03-03T10:12:36.064Z,26.40
2019-03-03T10:15:35.776Z,26.40
2019-03-03T10:18:43.289Z,26.30
2019-03-03T10:21:47.601Z,26.30
2019-03-03T10:24:51.555Z,26.30
2019-03-03T10:28:08.300Z,26.30
2019-03-03T10:31:22.432Z,26.40
2019-03-03T10:34:42.103Z,26.40
2019-03-03T10:38:07.242Z,26.40
2019-03-03T10:41:04.855Z,26.40
2019-03-03T10:44:20.983Z,26.40
2019-03-03T10:47:32.525Z,26.40
2019-03-03T10:50:40.754Z,26.40
2019-03-03T10:53:49.142Z,26.40
2019-03-03T10:56:58.696Z,26.40
2019-03-03T11:00:24.794Z,26.40
2019-03-03T11:03:43.916Z,26.40
2019-03-03T11:06:54.471Z,26.40
2019-03-03T11:09:53.846Z,26.40
2019-03-03T11:13:03.049Z,26.40
2019-03-03T11:16:18.780Z,26.40
2019-03-03T11:19:20.016Z,26.40
2019-03-03T11:22:30.006Z,26.40
2019-03-03T11:25:39.426Z,26.40
2019-03-03T11:28:53.763Z,26.40
2019-03-03T11:32:03.623Z,26.40
2019-03-03T11:35:12.556Z,26.40
2019-03-03T11:38:35.272Z,26.40
2019-03-03T11:41:32.972Z,26.40
2019-03-03T11:44:40.670Z,26.40
2019-03-03T11:47:51.550Z,26.40
2019-03-03T11:51:10.892Z,26.40
2019-03-03T11:54:24.595Z,26.40
2019-03-03T11:57:44.052Z,26.40
2019-03-03T12:00:55.130Z,26.30
2019-03-03T12:04:03.864Z,26.30
2019-03-03T12:07:12.874Z,26.40
2019-03-03T12:10:26.484Z,26.30
2019-03-03T12:13:24.991Z,26.40
2019-03-03T12:16:38.882Z,26.40
2019-03-03T12:19:51.030Z,26.30
2019-03-03T12:23:00.065Z,26.30
2019-03-03T12:26:25.403Z,26.40
2019-03-03T12:29:53.716Z,26.40
2019-03-03T12:33:08.305Z,26.40
2019-03-03T12:36:17.107Z,26.30
2019-03-03T12:39:19.827Z,26.30
2019-03-03T12:42:45.197Z,26.30
2019-03-03T12:45:57.083Z,26.40
2019-03-03T12:48:59.497Z,26.30
2019-03-03T12:52:24.867Z,26.30
2019-03-03T12:55:26.472Z,26.30
2019-03-03T12:58:35.101Z,26.30
2019-03-03T13:01:57.240Z,26.30
2019-03-03T13:04:59.294Z,26.30
2019-03-03T13:08:04.061Z,26.30
2019-03-03T13:11:04.902Z,26.30
2019-03-03T13:14:24.401Z,26.30
2019-03-03T13:17:47.985Z,26.30
2019-03-03T13:20:48.146Z,26.30
2019-03-03T13:24:01.264Z,26.30
2019-03-03T13:27:29.937Z,26.30
2019-03-03T13:30:37.256Z,26.30
2019-03-03T13:33:40.644Z,26.30
2019-03-03T13:37:07.380Z,26.30
2019-03-03T13:40:10.791Z,26.30
2019-03-03T13:43:10.134Z,26.30
2019-03-03T13:46:02.296Z,26.30
2019-03-03T13:48:54.340Z,26.30
2019-03-03T13:51:46.759Z,26.30
2019-03-03T13:54:42.339Z,26.30
2019-03-03T13:57:34.169Z,26.30
2019-03-03T14:00:28.075Z,26.30
2019-03-03T14:03:20.405Z,26.30
2019-03-03T14:06:16.607Z,26.30
2019-03-03T14:09:10.374Z,26.30
2019-03-03T14:12:02.578Z,26.30
2019-03-03T14:14:54.868Z,26.30
2019-03-03T14:17:48.351Z,26.30
2019-03-03T14:20:40.533Z,26.30
2019-03-03T14:23:32.509Z,26.30
2019-03-03T14:26:24.387Z,26.30
2019-03-03T14:29:19.458Z,26.30
2019-03-03T14:32:11.426Z,26.30
2019-03-03T14:35:03.711Z,26.30
2019-03-03T14:37:55.646Z,26.30
2019-03-03T14:40:49.367Z,26.30
2019-03-03T14:43:41.186Z,26.30
2019-03-03T14:46:33.254Z,26.30
2019-03-03T14:49:25.684Z,26.30
2019-03-03T14:52:21.767Z,26.30
2019-03-03T14:55:15.152Z,26.30
2019-03-03T14:58:07.302Z,26.30
2019-03-03T15:00:59.413Z,26.30
2019-03-03T15:03:51.870Z,26.30
2019-03-03T15:06:43.760Z,26.30
2019-03-03T15:09:35.923Z,26.30
2019-03-03T15:12:27.872Z,26.30
2019-03-03T15:15:22.883Z,26.30
2019-03-03T15:18:18.127Z,26.30
2019-03-03T15:21:10.356Z,26.30
2019-03-03T15:24:06.813Z,26.30
2019-03-03T15:26:58.801Z,26.30
2019-03-03T15:29:51.109Z,26.30
2019-03-03T15:32:43.474Z,26.30
2019-03-03T15:35:36.131Z,26.30
2019-03-03T15:38:30.001Z,26.30
2019-03-03T15:41:22.302Z,26.30
2019-03-03T15:44:14.356Z,26.30
2019-03-03T15:47:06.509Z,26.30
2019-03-03T15:50:00.522Z,26.30
2019-03-03T15:52:52.747Z,26.30
2019-03-03T15:55:45.022Z,26.30
2019-03-03T15:58:37.071Z,26.30
2019-03-03T16:01:29.743Z,26.30
2019-03-03T16:04:21.720Z,26.30
2019-03-03T16:07:14.036Z,26.30
2019-03-03T16:10:06.054Z,26.30
2019-03-03T16:13:00.971Z,26.30
2019-03-03T16:15:52.966Z,26.30
2019-03-03T16:18:45.229Z,26.30
2019-03-03T16:21:37.099Z,26.30
2019-03-03T16:24:29.080Z,26.30
2019-03-03T16:27:27.011Z,26.30
2019-03-03T16:30:19.775Z,26.30
2019-03-03T16:33:20.263Z,26.30
2019-03-03T16:36:05.502Z,26.30
2019-03-03T16:38:57.779Z,26.30
2019-03-03T16:41:49.723Z,26.30
2019-03-03T16:44:45.611Z,26.30
2019-03-03T16:47:38.939Z,26.30
2019-03-03T16:50:31.166Z,26.30
2019-03-03T16:53:23.138Z,26.40
2019-03-03T16:56:15.407Z,26.40
2019-03-03T16:59:07.763Z,26.40
2019-03-03T17:02:03.762Z,26.40
2019-03-03T17:04:56.132Z,26.30
2019-03-03T17:07:48.476Z,26.40
2019-03-03T17:10:46.002Z,26.40
2019-03-03T17:13:39.078Z,26.40
2019-03-03T17:16:31.375Z,26.30
2019-03-03T17:19:23.320Z,26.40
2019-03-03T17:22:15.331Z,26.40
2019-03-03T17:25:08.794Z,26.40
2019-03-03T17:28:00.996Z,26.40
2019-03-03T17:30:53.296Z,26.40
2019-03-03T17:33:47.784Z,26.40
2019-03-03T17:36:39.844Z,26.40
2019-03-03T17:39:31.887Z,26.40
2019-03-03T17:42:24.262Z,26.30
2019-03-03T17:45:19.753Z,26.40
2019-03-03T17:48:11.901Z,26.40
2019-03-03T17:51:03.992Z,26.40
2019-03-03T17:53:55.981Z,26.40
2019-03-03T17:56:53.047Z,26.40
2019-03-03T17:59:44.665Z,26.40
2019-03-03T18:02:36.564Z,26.40
2019-03-03T18:05:29.262Z,26.40
2019-03-03T18:08:25.227Z,26.40
2019-03-03T18:11:17.065Z,26.40
2019-03-03T18:14:09.233Z,26.40
2019-03-03T18:17:01.417Z,26.40
2019-03-03T18:19:56.570Z,26.40
2019-03-03T18:22:48.556Z,26.40
2019-03-03T18:25:40.606Z,26.40
2019-03-03T18:28:33.592Z,26.40
2019-03-03T18:31:29.835Z,26.40
2019-03-03T18:34:21.683Z,26.40
2019-03-03T18:37:15.214Z,26.40
2019-03-03T18:40:07.926Z,26.40
2019-03-03T18:43:02.181Z,26.40
2019-03-03T18:45:54.083Z,26.40
2019-03-03T18:48:46.104Z,26.40
2019-03-03T18:51:38.355Z,26.40
2019-03-03T18:54:35.382Z,26.40
2019-03-03T18:57:27.643Z,26.40
2019-03-03T19:00:24.330Z,26.40
2019-03-03T19:03:16.509Z,26.50
2019-03-03T19:06:08.671Z,26.40
2019-03-03T19:09:00.987Z,26.50
2019-03-03T19:11:54.768Z,26.50
2019-03-03T19:14:46.956Z,26.50
2019-03-03T19:17:38.758Z,26.40
2019-03-03T19:20:30.884Z,26.50
2019-03-03T19:23:22.936Z,26.50
2019-03-03T19:26:15.224Z,26.50
2019-03-03T19:29:07.075Z,26.50
2019-03-03T19:31:59.144Z,26.50
2019-03-03T19:34:51.237Z,26.50
2019-03-03T19:37:43.305Z,26.40
2019-03-03T19:40:38.324Z,26.40
2019-03-03T19:43:31.055Z,26.40
2019-03-03T19:46:24.647Z,26.50
2019-03-03T19:49:17.324Z,26.50
2019-03-03T19:52:13.373Z,26.40
2019-03-03T19:55:05.907Z,26.40
2019-03-03T19:57:58.351Z,26.50
2019-03-03T20:00:51.240Z,26.50
2019-03-03T20:03:46.642Z,26.40
2019-03-03T20:06:39.657Z,26.40
2019-03-03T20:09:33.190Z,26.40
2019-03-03T20:12:27.318Z,26.40
2019-03-03T20:15:19.875Z,26.40
2019-03-03T20:18:13.084Z,26.40
2019-03-03T20:21:05.882Z,26.40
2019-03-03T20:24:00.916Z,26.40
2019-03-03T20:26:52.788Z,26.40
2019-03-03T20:29:45.561Z,26.40
2019-03-03T20:32:38.327Z,26.40
2019-03-03T20:35:33.517Z,26.40
2019-03-03T20:38:26.059Z,26.40
2019-03-03T20:41:19.023Z,26.40
2019-03-03T20:44:11.668Z,26.40
2019-03-03T20:47:04.369Z,26.40
2019-03-03T20:49:59.792Z,26.40
2019-03-03T20:52:52.721Z,26.40
2019-03-03T20:55:45.632Z,26.40
2019-03-03T20:58:41.620Z,26.40
2019-03-03T21:01:34.149Z,26.40
2019-03-03T21:04:26.647Z,26.40
2019-03-03T21:07:22.348Z,26.40
2019-03-03T21:10:15.992Z,26.40
2019-03-03T21:13:08.863Z,26.30
2019-03-03T21:16:01.886Z,26.30
2019-03-03T21:18:58.212Z,26.40
2019-03-03T21:21:50.642Z,26.40
2019-03-03T21:24:43.474Z,26.30
2019-03-03T21:27:36.117Z,26.40
2019-03-03T21:30:30.043Z,26.30
2019-03-03T21:33:22.558Z,26.30
2019-03-03T21:36:15.192Z,26.40
2019-03-03T21:39:09.195Z,26.30
2019-03-03T21:42:02.140Z,26.30
2019-03-03T21:44:54.678Z,26.30
2019-03-03T21:47:47.435Z,26.30
2019-03-03T21:50:40.122Z,26.30
2019-03-03T21:53:32.616Z,26.30
2019-03-03T21:56:24.932Z,26.30
2019-03-03T21:59:18.179Z,26.40
2019-03-03T22:02:10.888Z,26.40
2019-03-03T22:05:03.686Z,26.30
2019-03-03T22:07:57.509Z,26.30
2019-03-03T22:10:50.142Z,26.30
2019-03-03T22:13:50.927Z,26.30
2019-03-03T22:16:43.157Z,26.20
2019-03-03T22:19:36.107Z,26.30
2019-03-03T22:22:28.969Z,26.30
2019-03-03T22:25:24.486Z,26.30
2019-03-03T22:28:17.035Z,26.30
2019-03-03T22:31:10.060Z,26.30
2019-03-03T22:34:02.668Z,26.30
2019-03-03T22:36:56.872Z,26.30
2019-03-03T22:39:49.787Z,26.30
2019-03-03T22:42:42.694Z,26.30
2019-03-03T22:45:35.711Z,26.30
2019-03-03T22:48:28.894Z,26.20
2019-03-03T22:51:21.448Z,26.20
2019-03-03T22:54:14.236Z,26.20
2019-03-03T22:57:07.135Z,26.20
2019-03-03T23:00:02.636Z,26.20
2019-03-03T23:02:56.675Z,26.30
2019-03-03T23:05:52.918Z,26.20
2019-03-03T23:08:48.546Z,26.20
2019-03-03T23:11:48.864Z,26.20
2019-03-03T23:14:58.309Z,26.20
2019-03-03T23:18:11.963Z,26.20
2019-03-03T23:21:12.191Z,26.20
2019-03-03T23:24:12.299Z,26.10
2019-03-03T23:27:04.960Z,26.10
2019-03-03T23:29:57.889Z,26.10
2019-03-03T23:32:50.541Z,26.10
2019-03-03T23:35:44.822Z,26.10
2019-03-03T23:38:37.256Z,26.10
2019-03-03T23:41:30.096Z,26.10
2019-03-03T23:44:22.194Z,26.10
2019-03-03T23:47:14.538Z,26.10
2019-03-03T23:50:06.951Z,26.10
2019-03-03T23:52:59.220Z,26.10
2019-03-03T23:55:51.464Z,26.10
2019-03-03T23:58:44.358Z,26.10
